Latest Weather Observations for Avalon

IDV60801

Issued at 6:02 pm EDT Monday 22 December 2014 (issued every 30 minutes, with the page automatically refreshed every 10 minutes)

About weather observations | Map of weather stations | Latest weather observations for VIC | Other Formats
Station Details ID: 087113 Name: AVALON AIRPORT Lat: -38.03 Lon: 144.48 Height: 10.6 m
Data from the previous 72 hours. | See also: Recent months at Avalon
Date/Time
EDT
Temp
°C
App
Temp
°C
Dew
Point
Rel
Hum
%
Delta-T
°C
Wind Press
QNH
hPa
Press
MSL
hPa
Rain
since 9 am
mm
Dir
 
Spd
km/h
Gust
km/h
Spd
kts
Gust
kts
22/06:00pm 20.9 20.7 16.7 77 2.6 S 13 20 7 11 1006.8 1006.8 0.0
22/05:30pm 20.9 21.3 16.3 75 2.8 W 9 15 5 8 1008.0 1008.0 0.0
22/05:00pm 21.6 22.2 16.8 74 2.9 SSW 9 13 5 7 1008.1 1008.1 0.0
22/04:30pm 21.1 20.4 16.5 75 2.8 SSW 15 20 8 11 1008.7 1008.7 0.0
22/04:00pm 21.3 20.3 16.5 74 2.9 S 17 20 9 11 1009.0 1009.0 0.0
22/03:30pm 20.6 18.5 16.2 76 2.6 SSW 22 26 12 14 1009.5 1009.5 0.0
22/03:00pm 20.9 19.2 16.3 75 2.8 SSW 20 24 11 13 1010.4 1010.4 0.0
22/02:30pm 21.3 19.9 16.5 74 2.9 SSW 19 24 10 13 1010.8 1010.8 0.0
22/02:00pm 20.9 18.7 15.9 73 3.0 SSW 22 28 12 15 1011.3 1011.3 0.0
22/01:30pm 21.9 20.2 16.2 70 3.4 SSW 20 26 11 14 1011.6 1011.6 0.0
22/01:00pm 22.2 20.5 15.8 67 3.8 SSW 19 26 10 14 1012.0 1012.0 0.0
22/12:30pm 21.5 20.2 15.8 70 3.4 SSE 17 24 9 13 1012.3 1012.3 0.0
22/12:00pm 20.8 20.0 16.0 74 2.9 SSW 15 19 8 10 1013.1 1013.1 0.0
22/11:30am 19.9 18.0 15.3 75 2.7 S 19 24 10 13 1012.9 1012.9 0.0
22/11:09am 20.2 20.0 15.8 76 2.6 ESE 11 20 6 11 1012.9 1012.9 0.0
22/11:00am 20.0 19.8 15.6 76 2.6 SSE 11 15 6 8 1013.0 1013.0 0.0
22/10:30am 19.2 18.6 15.7 80 2.1 SSE 13 19 7 10 1013.0 1013.0 0.0
22/10:00am 18.7 18.0 15.4 81 1.9 S 13 17 7 9 1013.5 1013.5 0.0
22/09:30am 18.7 17.6 15.4 81 1.9 SSE 15 19 8 10 1013.4 1013.4 0.0
22/09:00am 18.8 17.3 15.3 80 2.1 SE 17 20 9 11 1013.4 1013.4 0.0
22/08:30am 18.5 18.6 15.4 82 1.8 ESE 9 17 5 9 1013.3 1013.3 0.0
22/08:00am 18.1 17.4 15.4 84 1.6 SE 13 17 7 9 1013.2 1013.2 0.0
22/07:30am 17.5 16.3 15.0 85 1.5 SSE 15 19 8 10 1013.2 1013.2 0.0
22/07:00am 17.2 15.6 15.0 87 1.3 SSE 17 20 9 11 1013.3 1013.3 0.0
22/06:30am 16.8 16.0 15.0 89 1.0 SSE 13 17 7 9 1013.0 1013.0 0.0
22/06:00am 16.4 15.5 14.8 90 0.9 SSE 13 17 7 9 1012.9 1012.9 0.0
22/05:30am 16.4 15.4 14.6 89 1.0 S 13 17 7 9 1012.8 1012.8 0.0
22/05:00am 16.3 15.3 14.5 89 1.0 SSE 13 15 7 8 1012.7 1012.7 0.0
22/04:30am 16.4 15.4 14.6 89 1.0 S 13 17 7 9 1012.6 1012.6 0.0
22/04:00am 16.3 15.8 14.8 91 0.9 S 11 15 6 8 1012.9 1012.9 0.0
22/03:50am 16.2 14.9 14.7 91 0.9 S 15 19 8 10 1013.0 1013.0 0.0
22/03:30am 16.0 15.0 14.7 92 0.7 S 13 15 7 8 1013.3 1013.3 0.0
22/03:00am 15.8 15.2 14.5 92 0.7 S 11 13 6 7 1013.4 1013.4 0.0
22/02:30am 15.9 15.4 14.8 93 0.6 SSE 11 15 6 8 1013.7 1013.7 0.0
22/02:07am 15.3 14.5 14.0 92 0.7 S 11 13 6 7 1013.7 1013.7 0.0
22/02:00am 15.2 14.4 13.9 92 0.7 S 11 13 6 7 1013.7 1013.7 0.0
22/01:30am 15.5 15.0 13.9 90 0.9 SSE 9 13 5 7 1014.1 1014.1 0.0
22/01:11am 15.9 15.1 14.1 89 1.0 S 11 15 6 8 1014.3 1014.3 0.0
22/01:00am 16.0 15.2 14.0 88 1.1 S 11 15 6 8 1014.5 1014.5 0.0
22/12:30am 16.7 14.9 14.5 87 1.3 S 17 20 9 11 1014.6 1014.6 0.0
22/12:00am 17.0 14.8 14.8 87 1.3 S 20 26 11 14 1014.9 1014.9 0.0
 
Date/Time
EDT
Temp
°C
App
Temp
°C
Dew
Point
Rel
Hum
%
Delta-T
°C
Wind Press
QNH
hPa
Press
MSL
hPa
Rain
since 9 am
mm
Dir
 
Spd
km/h
Gust
km/h
Spd
kts
Gust
kts
21/11:30pm 17.3 15.5 15.6 90 1.0 SSW 19 22 10 12 1014.8 1014.8 0.0
21/11:18pm 17.1 15.7 15.6 91 0.9 SSW 17 24 9 13 1014.7 1014.7 0.0
21/11:00pm 16.8 15.6 15.0 89 1.0 SSW 15 20 8 11 1014.6 1014.6 0.0
21/10:30pm 17.5 14.6 15.1 86 1.4 SSW 24 32 13 17 1014.6 1014.6 0.0
21/10:00pm 17.7 15.3 15.5 87 1.3 SSW 22 30 12 16 1014.2 1014.2 0.0
21/09:30pm 18.2 15.5 15.6 85 1.5 S 24 30 13 16 1013.8 1013.8 0.0
21/09:00pm 18.7 18.2 15.0 79 2.2 S 11 15 6 8 1013.5 1013.5 0.0
21/08:30pm 19.6 18.8 15.0 75 2.7 SSW 13 19 7 10 1013.0 1013.0 0.0
21/08:00pm 21.2 19.3 15.1 68 3.6 S 19 22 10 12 1012.5 1012.5 0.0
21/07:30pm 23.5 20.3 15.3 60 4.9 SSW 26 32 14 17 1011.9 1011.9 0.0
21/07:00pm 25.3 21.7 11.8 43 7.7 SSW 22 26 12 14 1011.3 1011.3 0.0
21/06:30pm 26.0 22.7 11.7 41 8.2 S 20 26 11 14 1011.2 1011.2 0.0
21/06:00pm 25.4 21.9 13.3 47 7.1 S 24 28 13 15 1011.3 1011.3 0.0
21/05:30pm 26.1 21.6 13.9 47 7.2 SSW 30 35 16 19 1011.6 1011.6 0.0
21/05:00pm 26.4 21.7 13.2 44 7.7 S 30 37 16 20 1011.6 1011.6 0.0
21/04:30pm 26.6 21.2 14.0 46 7.5 S 35 44 19 24 1011.7 1011.7 0.0
21/04:00pm 28.4 25.6 15.3 45 8.0 SE 24 35 13 19 1011.8 1011.8 0.0
21/03:30pm 30.0 25.8 12.4 34 10.3 ESE 26 30 14 16 1011.3 1011.3 0.0
21/03:00pm 29.9 25.6 11.9 33 10.5 E 26 32 14 17 1011.6 1011.6 0.0
21/02:30pm 29.1 25.5 12.9 37 9.6 ESE 24 28 13 15 1011.9 1011.9 0.0
21/02:00pm 29.0 26.2 13.2 37 9.4 ESE 20 24 11 13 1012.3 1012.3 0.0
21/01:30pm 26.4 23.8 13.9 46 7.4 ESE 20 26 11 14 1012.7 1012.7 0.0
21/01:00pm 25.8 24.2 14.9 51 6.5 ESE 17 20 9 11 1013.3 1013.3 0.0
21/12:30pm 24.9 23.4 15.2 54 5.8 SE 17 20 9 11 1013.7 1013.7 0.0
21/12:00pm 23.7 22.2 15.2 59 5.1 SE 17 20 9 11 1013.9 1013.9 0.0
21/11:30am 22.0 20.1 15.1 65 4.1 ESE 19 26 10 14 1014.0 1014.0 0.0
21/11:00am 21.6 19.9 14.7 65 4.1 SE 17 22 9 12 1014.1 1014.1 0.0
21/10:30am 22.2 21.7 14.8 63 4.4 E 11 22 6 12 1014.1 1014.1 0.0
21/10:00am 21.4 21.0 14.1 63 4.2 E 9 15 5 8 1014.2 1014.2 0.0
21/09:30am 20.7 20.5 13.6 64 4.1 NE 7 11 4 6 1014.6 1014.6 0.0
21/09:00am 19.1 18.4 13.1 68 3.4 NE 9 15 5 8 1014.8 1014.8 0.0
21/08:30am 18.1 17.0 13.2 73 2.8 ENE 11 13 6 7 1014.8 1014.8 0.0
21/08:00am 17.1 16.2 13.8 81 1.9 ENE 11 13 6 7 1014.6 1014.6 0.0
21/07:30am 15.9 15.0 13.6 86 1.3 NE 11 13 6 7 1014.5 1014.5 0.0
21/07:00am 13.9 14.6 12.3 90 0.9 CALM 0 7 0 4 1014.8 1014.8 0.0
21/06:30am 12.5 12.9 11.4 93 0.6 CALM 0 0 0 0 1015.0 1015.0 0.0
21/06:00am 12.6 13.1 11.5 93 0.6 CALM 0 0 0 0 1014.8 1014.8 0.0
21/05:38am 12.8 11.9 11.4 91 0.7 N 7 7 4 4 1014.6 1014.6 0.0
21/05:30am 12.9 12.2 11.3 90 0.8 N 6 7 3 4 1014.6 1014.6 0.0
21/05:00am 13.9 13.4 12.8 93 0.6 N 7 11 4 6 1014.5 1014.5 0.0
21/04:30am 13.6 12.1 13.0 96 0.3 N 13 17 7 9 1014.2 1014.2 0.0
21/04:20am 12.9 11.2 12.3 96 0.3 N 13 17 7 9 1014.1 1014.1 0.0
21/04:00am 11.6 9.8 11.0 96 0.3 NNE 11 15 6 8 1014.3 1014.3 0.0
21/03:30am 10.3 8.4 9.2 93 0.5 N 9 9 5 5 1014.6 1014.6 0.0
21/03:00am 11.0 9.7 9.9 93 0.6 N 7 9 4 5 1015.0 1015.0 0.0
21/02:30am 11.1 9.8 9.9 92 0.6 NNW 7 9 4 5 1015.5 1015.5 0.0
21/02:00am 11.4 10.1 10.0 91 0.7 N 7 9 4 5 1015.8 1015.8 0.0
21/01:30am 12.6 13.0 11.3 92 0.7 CALM 0 0 0 0 1016.2 1016.2 0.0
21/01:00am 12.0 11.4 10.4 90 0.8 N 4 6 2 3 1016.6 1016.6 0.0
21/12:30am 12.9 13.2 11.0 88 1.0 CALM 0 0 0 0 1017.0 1017.0 0.0
21/12:00am 13.4 13.9 11.5 88 1.0 CALM 0 0 0 0 1017.5 1017.5 0.0
 
Date/Time
EDT
Temp
°C
App
Temp
°C
Dew
Point
Rel
Hum
%
Delta-T
°C
Wind Press
QNH
hPa
Press
MSL
hPa
Rain
since 9 am
mm
Dir
 
Spd
km/h
Gust
km/h
Spd
kts
Gust
kts
20/11:30pm 13.7 13.1 11.7 88 1.1 SE 6 7 3 4 1017.7 1017.7 0.0
20/11:00pm 14.1 13.3 11.8 86 1.2 SSE 7 11 4 6 1017.9 1017.9 0.0
20/10:30pm 14.3 13.5 11.6 84 1.4 SSE 7 9 4 5 1018.0 1018.0 0.0
20/10:00pm 14.2 13.3 11.4 83 1.5 SSE 7 9 4 5 1018.1 1018.1 0.0
20/09:30pm 14.7 13.0 11.3 80 1.8 SSE 11 15 6 8 1017.9 1017.9 0.0
20/09:00pm 15.7 13.7 11.5 76 2.3 S 13 17 7 9 1017.7 1017.7 0.0
20/08:30pm 16.6 13.8 11.5 72 2.8 SSE 17 19 9 10 1017.7 1017.7 0.0
20/08:00pm 17.6 14.4 11.4 67 3.4 SSE 19 24 10 13 1017.6 1017.6 0.0
20/07:30pm 18.4 14.7 11.5 64 3.8 SSE 22 30 12 16 1017.3 1017.3 0.0
20/07:00pm 18.9 15.3 11.7 63 4.0 S 22 30 12 16 1017.1 1017.1 0.0
20/06:30pm 19.4 15.4 11.7 61 4.2 SSE 24 33 13 18 1017.0 1017.0 0.0
20/06:00pm 20.2 16.2 11.9 59 4.6 S 24 32 13 17 1016.8 1016.8 0.0
20/05:30pm 20.3 15.7 11.2 56 5.0 S 26 32 14 17 1016.7 1016.7 0.0
20/05:00pm 20.8 16.8 11.7 56 5.1 S 24 39 13 21 1016.9 1016.9 0.0
20/04:30pm 21.1 17.1 11.7 55 5.2 S 24 35 13 19 1017.0 1017.0 0.0
20/04:00pm 21.3 17.2 11.3 53 5.5 S 24 33 13 18 1017.2 1017.2 0.0
20/03:30pm 21.8 18.3 12.1 54 5.5 SSE 22 28 12 15 1017.4 1017.4 0.0
20/03:00pm 21.7 17.5 12.3 55 5.3 ESE 26 35 14 19 1017.8 1017.8 0.0
20/02:30pm 21.7 17.4 12.0 54 5.4 ESE 26 37 14 20 1017.9 1017.9 0.0
20/02:00pm 24.0 21.4 9.2 39 8.0 SW 13 22 7 12 1017.7 1017.7 0.0
20/01:30pm 23.0 21.5 10.4 45 6.9 SW 9 19 5 10 1017.9 1017.9 0.0
20/01:00pm 22.3 19.7 9.5 44 6.9 WNW 13 26 7 14 1018.2 1018.2 0.0
20/12:30pm 21.2 19.2 10.1 49 6.0 SW 11 20 6 11 1018.6 1018.6 0.0
20/12:00pm 20.4 18.3 9.6 50 5.8 WSW 11 19 6 10 1018.9 1018.9 0.0
20/11:30am 19.7 17.2 9.6 52 5.4 W 13 20 7 11 1019.0 1019.0 0.0
20/11:00am 18.1 14.4 9.5 57 4.5 WSW 19 26 10 14 1019.3 1019.3 0.0
20/10:30am 17.8 14.0 9.9 60 4.2 WSW 20 33 11 18 1019.6 1019.6 0.0
20/10:00am 17.1 13.4 9.5 61 4.0 WSW 19 26 10 14 1019.6 1019.6 0.0
20/09:30am 16.8 13.5 9.5 62 3.8 WSW 17 24 9 13 1019.6 1019.6 0.0
20/09:00am 16.6 13.3 9.5 63 3.7 W 17 24 9 13 1019.5 1019.5 0.0
20/08:30am 15.6 12.2 9.3 66 3.2 W 17 22 9 12 1019.1 1019.1 0.0
20/08:00am 14.4 11.8 9.2 71 2.6 W 13 17 7 9 1018.9 1018.9 0.0
20/07:30am 13.1 10.8 9.0 76 2.1 W 11 13 6 7 1018.6 1018.6 0.0
20/07:00am 11.5 9.5 8.5 82 1.5 WNW 9 13 5 7 1018.4 1018.4 0.0
20/06:30am 10.1 7.4 7.5 84 1.2 NW 11 13 6 7 1018.2 1018.2 0.0
20/06:00am 9.6 7.2 7.0 84 1.2 NW 9 11 5 6 1018.0 1018.0 0.0
20/05:30am 9.6 6.8 7.0 84 1.2 NW 11 13 6 7 1018.0 1018.0 0.0
20/05:00am 9.8 7.0 7.1 83 1.3 NW 11 13 6 7 1017.8 1017.8 0.0
20/04:30am 9.8 6.7 7.2 84 1.2 NW 13 15 7 8 1017.8 1017.8 0.0
20/04:00am 9.2 6.4 7.0 86 1.0 NW 11 13 6 7 1018.0 1018.0 0.0
20/03:30am 9.9 7.1 6.8 81 1.5 NW 11 13 6 7 1018.0 1018.0 0.0
20/03:00am 9.8 7.0 7.1 83 1.3 NW 11 13 6 7 1018.2 1018.2 0.0
20/02:30am 10.4 7.3 7.1 80 1.6 NW 13 15 7 8 1018.3 1018.3 0.0
20/02:00am 10.3 7.5 6.8 79 1.6 NW 11 13 6 7 1018.7 1018.7 0.0
20/01:30am 10.1 7.3 6.8 80 1.6 NW 11 11 6 6 1018.9 1018.9 0.0
20/01:00am 9.8 6.9 6.5 80 1.5 NNW 11 11 6 6 1019.1 1019.1 0.0
20/12:30am 11.8 8.9 6.7 71 2.4 WNW 11 13 6 7 1019.5 1019.5 0.0
20/12:00am 12.2 9.4 6.9 70 2.5 WNW 11 15 6 8 1019.7 1019.7 0.0
 
Date/Time
EDT
Temp
°C
App
Temp
°C
Dew
Point
Rel
Hum
%
Delta-T
°C
Wind Press
QNH
hPa
Press
MSL
hPa
Rain
since 9 am
mm
Dir
 
Spd
km/h
Gust
km/h
Spd
kts
Gust
kts
19/11:30pm 12.2 8.6 6.9 70 2.5 W 15 15 8 8 1020.0 1020.0 0.0
19/11:00pm 13.6 10.1 7.2 65 3.1 WSW 15 17 8 9 1020.1 1020.1 0.0
19/10:30pm 12.7 9.8 8.2 74 2.2 SSW 13 15 7 8 1020.1 1020.1 0.0
19/10:00pm 13.5 10.3 8.6 72 2.4 SSW 15 17 8 9 1019.9 1019.9 0.0
19/09:30pm 14.5 10.5 9.1 70 2.8 S 20 24 11 13 1019.7 1019.7 0.0
19/09:00pm 15.0 11.6 9.1 68 3.0 S 17 26 9 14 1019.7 1019.7 0.0
19/08:30pm 15.6 12.1 8.8 64 3.5 S 17 24 9 13 1019.7 1019.7 0.0
19/08:00pm 16.5 12.6 8.7 60 4.0 S 19 24 10 13 1019.5 1019.5 0.0
19/07:30pm 16.6 12.0 8.3 58 4.2 S 22 28 12 15 1019.2 1019.2 0.0
19/07:00pm 16.7 11.9 7.4 54 4.6 S 22 30 12 16 1018.7 1018.7 0.0
19/06:30pm 17.7 13.1 8.0 53 4.9 S 22 33 12 18 1018.4 1018.4 0.0

Other Formats:

Comma delimited format used in spreadsheet applications
http://www.bom.gov.au/fwo/IDV60801/IDV60801.94854.axf

JavaScript Object Notation format (JSON) in row-major order
http://www.bom.gov.au/fwo/IDV60801/IDV60801.94854.json